createdAt,value
2016-03-28T12:33:47.958Z,979.63
2016-03-28T12:34:47.977Z,979.54
2016-03-28T12:35:47.980Z,979.48
2016-03-28T12:36:47.983Z,979.45
2016-03-28T12:37:47.985Z,979.42
2016-03-28T12:38:47.988Z,979.4
2016-03-28T12:39:48.005Z,979.31
2016-03-28T12:40:48.008Z,979.24
2016-03-28T12:41:48.008Z,979.38
2016-03-28T12:42:47.997Z,979.16
2016-03-28T12:43:48.003Z,979.16
2016-03-28T12:44:47.991Z,979.29
2016-03-28T12:45:47.981Z,979.3
2016-03-28T12:46:47.972Z,979.08
2016-03-28T12:47:47.985Z,979.21
2016-03-28T12:48:47.968Z,979.14
2016-03-28T12:49:47.982Z,979.11
2016-03-28T12:50:47.979Z,978.89
2016-03-28T12:51:48.041Z,979.16
2016-03-28T12:52:48.026Z,979.22
2016-03-28T12:53:47.995Z,979.15
2016-03-28T12:54:47.996Z,979.09
2016-03-28T12:55:47.998Z,979.04
2016-03-28T12:56:47.998Z,979.26
2016-03-28T12:57:48.000Z,979.21
2016-03-28T12:58:48.003Z,979.24
2016-03-28T12:59:48.006Z,979.27
2016-03-28T13:00:48.024Z,979.28
2016-03-28T13:01:48.026Z,979.25
2016-03-28T13:02:48.029Z,979.29
2016-03-28T13:03:48.031Z,979.36
2016-03-28T13:04:48.033Z,979.27
2016-03-28T13:05:48.051Z,979.15
2016-03-28T13:06:48.053Z,979.06
2016-03-28T13:07:48.041Z,979.01
2016-03-28T13:08:48.058Z,978.86
2016-03-28T13:09:48.061Z,978.94
2016-03-28T13:10:48.064Z,979.22
2016-03-28T13:11:48.066Z,979.12
2016-03-28T13:12:48.069Z,979.17
2016-03-28T13:13:48.088Z,979.2
2016-03-28T13:14:48.090Z,979.04
2016-03-28T13:15:48.093Z,979.06
2016-03-28T13:16:48.096Z,979.19
2016-03-28T13:17:48.098Z,978.97
2016-03-28T13:18:48.117Z,978.88
2016-03-28T13:19:48.120Z,978.83
2016-03-28T13:20:48.123Z,978.97
2016-03-28T13:21:48.125Z,979.01
2016-03-28T13:22:48.143Z,978.95
2016-03-28T13:23:48.145Z,978.91
2016-03-28T13:24:48.133Z,978.98
2016-03-28T13:25:48.151Z,978.99
2016-03-28T13:26:48.153Z,979.05
2016-03-28T13:27:48.156Z,979.04
2016-03-28T13:28:48.159Z,979.13
2016-03-28T13:29:48.161Z,979.03
2016-03-28T13:30:48.180Z,979.09
2016-03-28T13:31:48.183Z,979.09
2016-03-28T13:32:48.185Z,979.1
2016-03-28T13:33:48.203Z,978.96
2016-03-28T13:34:48.191Z,978.9
2016-03-28T13:35:48.209Z,978.85
2016-03-28T13:36:48.211Z,978.9
2016-03-28T13:37:48.230Z,978.95
2016-03-28T13:38:48.233Z,978.95
2016-03-28T13:39:48.235Z,978.96
2016-03-28T13:40:48.238Z,979.14
2016-03-28T13:41:48.241Z,978.84
2016-03-28T13:42:48.259Z,978.82
2016-03-28T13:43:48.246Z,978.9
2016-03-28T13:44:48.265Z,978.7
2016-03-28T13:45:48.268Z,978.69
2016-03-28T13:46:48.270Z,978.77
2016-03-28T13:47:48.273Z,978.68
2016-03-28T13:48:48.290Z,978.71
2016-03-28T13:49:48.278Z,978.7
2016-03-28T13:50:48.296Z,978.65
2016-03-28T13:51:48.298Z,978.67
2016-03-28T13:52:48.302Z,978.67
2016-03-28T13:53:48.304Z,978.61
2016-03-28T13:54:48.323Z,978.75
2016-03-28T13:55:48.342Z,978.57
2016-03-28T13:56:48.344Z,978.52
2016-03-28T13:57:48.347Z,978.55
2016-03-28T13:58:48.349Z,978.43
2016-03-28T13:59:48.367Z,978.43
2016-03-28T14:00:48.358Z,978.37
2016-03-28T14:01:48.361Z,978.4
2016-03-28T14:02:48.364Z,978.4
2016-03-28T14:03:48.366Z,978.46
2016-03-28T14:04:48.385Z,978.29
2016-03-28T14:05:48.388Z,978.48
2016-03-28T14:06:48.407Z,978.48
2016-03-28T14:07:48.395Z,978.32
2016-03-28T14:08:48.397Z,978.32
2016-03-28T14:09:48.416Z,978.15
2016-03-28T14:10:48.418Z,978.33
2016-03-28T14:11:48.421Z,978.17
2016-03-28T14:12:48.424Z,978.36
2016-03-28T14:13:48.442Z,978.27
2016-03-28T14:14:48.444Z,978.26
2016-03-28T14:15:48.447Z,978.21
2016-03-28T14:16:48.575Z,978.2
2016-03-28T14:17:48.765Z,978.18
2016-03-28T14:18:48.471Z,978.08
2016-03-28T14:19:48.880Z,978.27
2016-03-28T14:20:48.477Z,978.09
2016-03-28T14:21:48.480Z,978.2
2016-03-28T14:22:48.497Z,978.12
2016-03-28T14:23:48.500Z,978.16
2016-03-28T14:24:48.503Z,978.15
2016-03-28T14:25:48.505Z,978.13
2016-03-28T14:26:48.524Z,978.14
2016-03-28T14:27:48.527Z,978
2016-03-28T14:28:48.529Z,978.16
2016-03-28T14:29:48.532Z,978.08
2016-03-28T14:30:48.535Z,978.09
2016-03-28T14:31:48.568Z,977.96
2016-03-28T14:32:48.603Z,977.99
2016-03-28T14:33:48.590Z,978.12
2016-03-28T14:34:48.576Z,978.06
2016-03-28T14:35:48.595Z,977.91
2016-03-28T14:36:48.598Z,977.91
2016-03-28T14:37:48.601Z,977.88
2016-03-28T14:38:48.603Z,977.9
2016-03-28T14:39:48.606Z,977.88
2016-03-28T14:40:48.625Z,977.85
2016-03-28T14:41:48.627Z,977.8
2016-03-28T14:42:48.630Z,977.86
2016-03-28T14:43:48.633Z,977.87
2016-03-28T14:44:48.635Z,977.81
2016-03-28T14:45:48.653Z,977.72
2016-03-28T14:46:48.641Z,977.91
2016-03-28T14:47:48.658Z,977.77
2016-03-28T14:48:48.661Z,977.67
2016-03-28T14:49:48.664Z,977.5
2016-03-28T14:50:48.682Z,977.62
2016-03-28T14:51:48.686Z,977.61
2016-03-28T14:52:48.688Z,977.66
2016-03-28T14:53:48.706Z,977.49
2016-03-28T14:54:48.693Z,977.64
2016-03-28T14:55:48.696Z,977.63
2016-03-28T14:56:48.730Z,977.65
2016-03-28T14:57:48.733Z,977.6
2016-03-28T14:58:48.751Z,977.52
2016-03-28T14:59:48.722Z,977.53
2016-03-28T15:00:48.725Z,977.41
2016-03-28T15:01:48.727Z,977.27
2016-03-28T15:02:48.730Z,977.36
2016-03-28T15:03:48.732Z,977.36
2016-03-28T15:04:48.751Z,977.21
2016-03-28T15:05:48.738Z,977.18
2016-03-28T15:06:48.756Z,977.21
2016-03-28T15:07:48.775Z,977.25
2016-03-28T15:08:48.778Z,977.37
2016-03-28T15:09:48.780Z,977.2
2016-03-28T15:10:48.798Z,977.18
2016-03-28T15:11:48.786Z,977.08
2016-03-28T15:12:48.788Z,977.08
2016-03-28T15:13:48.791Z,977.05
2016-03-28T15:14:48.794Z,977.06
2016-03-28T15:15:48.812Z,977.04
2016-03-28T15:16:48.814Z,977.07
2016-03-28T15:17:48.817Z,977.12
2016-03-28T15:18:48.836Z,977.07
2016-03-28T15:19:48.822Z,977.08
2016-03-28T15:20:48.841Z,977.03
2016-03-28T15:21:48.844Z,977.07
2016-03-28T15:22:48.846Z,977.07
2016-03-28T15:23:48.849Z,977.09
2016-03-28T15:24:48.868Z,977.07
2016-03-28T15:25:48.854Z,977.11
2016-03-28T15:26:48.857Z,977.07
2016-03-28T15:27:48.876Z,976.92
2016-03-28T15:28:48.879Z,976.9
2016-03-28T15:29:48.896Z,977.03
2016-03-28T15:30:48.884Z,976.93
2016-03-28T15:31:48.902Z,976.9
2016-03-28T15:32:48.904Z,976.89
2016-03-28T15:33:48.907Z,976.84
2016-03-28T15:34:48.910Z,976.84
2016-03-28T15:35:48.928Z,976.84
2016-03-28T15:36:48.931Z,976.96
2016-03-28T15:37:48.934Z,976.91
2016-03-28T15:38:48.967Z,976.83
2016-03-28T15:39:48.939Z,976.83
2016-03-28T15:40:48.957Z,976.79
2016-03-28T15:41:48.959Z,976.93
2016-03-28T15:42:48.962Z,976.85
2016-03-28T15:43:48.965Z,976.84
2016-03-28T15:44:48.984Z,976.86
2016-03-28T15:45:48.986Z,976.95
2016-03-28T15:46:48.989Z,976.76
2016-03-28T15:47:49.008Z,976.64
2016-03-28T15:48:48.994Z,976.69
2016-03-28T15:49:49.013Z,976.72
2016-03-28T15:50:49.016Z,976.79
2016-03-28T15:51:49.018Z,976.79
2016-03-28T15:52:49.021Z,976.78
2016-03-28T15:53:49.024Z,976.8
2016-03-28T15:54:49.041Z,976.79
2016-03-28T15:55:49.044Z,976.84
2016-03-28T15:56:49.047Z,976.71
2016-03-28T15:57:49.049Z,976.7
2016-03-28T15:58:49.068Z,976.73
2016-03-28T15:59:49.055Z,976.72
2016-03-28T16:00:49.074Z,976.68
2016-03-28T16:01:49.076Z,976.69
2016-03-28T16:02:49.079Z,976.61
2016-03-28T16:03:49.082Z,976.64
2016-03-28T16:04:49.100Z,976.62
2016-03-28T16:05:49.103Z,976.54
2016-03-28T16:06:49.106Z,976.58
2016-03-28T16:07:49.108Z,976.65
2016-03-28T16:08:49.126Z,976.62
2016-03-28T16:09:49.129Z,976.55
2016-03-28T16:10:49.131Z,976.54
2016-03-28T16:11:49.134Z,976.59
2016-03-28T16:12:49.137Z,976.58
2016-03-28T16:13:49.155Z,976.61
2016-03-28T16:14:49.142Z,976.58
2016-03-28T16:15:49.161Z,976.47
2016-03-28T16:16:49.164Z,976.48
2016-03-28T16:17:49.166Z,976.52
2016-03-28T16:18:49.169Z,976.52
2016-03-28T16:19:49.187Z,976.39
2016-03-28T16:20:49.189Z,976.47
2016-03-28T16:21:49.192Z,976.54
2016-03-28T16:22:49.195Z,976.44
2016-03-28T16:23:49.197Z,976.4
2016-03-28T16:24:49.200Z,976.41
2016-03-28T16:25:49.203Z,976.44
2016-03-28T16:26:49.205Z,976.46
2016-03-28T16:27:49.224Z,976.41
2016-03-28T16:28:49.227Z,976.34
2016-03-28T16:29:49.229Z,976.49
2016-03-28T16:30:49.248Z,976.47
2016-03-28T16:31:49.235Z,976.52
2016-03-28T16:32:49.254Z,976.49
2016-03-28T16:33:49.256Z,976.35
2016-03-28T16:34:49.259Z,976.42
2016-03-28T16:35:49.262Z,976.51
2016-03-28T16:36:49.279Z,976.53
2016-03-28T16:37:49.282Z,976.53
2016-03-28T16:38:49.317Z,976.53
2016-03-28T16:39:49.288Z,976.59
2016-03-28T16:40:49.290Z,976.48
2016-03-28T16:41:49.309Z,976.54
2016-03-28T16:42:49.311Z,976.52
2016-03-28T16:43:49.298Z,976.54
2016-03-28T16:44:49.333Z,976.59
2016-03-28T16:45:49.336Z,976.51
2016-03-28T16:46:49.355Z,976.52
2016-03-28T16:47:49.326Z,976.5
2016-03-28T16:48:49.345Z,976.44
2016-03-28T16:49:49.331Z,976.57
2016-03-28T16:50:49.350Z,976.68
2016-03-28T16:51:49.383Z,976.64
2016-03-28T16:52:49.339Z,976.63
2016-03-28T16:53:49.389Z,976.58
2016-03-28T16:54:49.361Z,976.71
2016-03-28T16:55:49.364Z,976.66
2016-03-28T16:56:49.367Z,976.71
2016-03-28T16:57:49.369Z,976.79
2016-03-28T16:58:49.403Z,976.59
2016-03-28T16:59:49.406Z,976.75
2016-03-28T17:00:49.392Z,976.78
2016-03-28T17:01:49.395Z,976.84
2016-03-28T17:02:49.397Z,976.88
2016-03-28T17:03:49.400Z,976.91
2016-03-28T17:04:49.418Z,976.88
2016-03-28T17:05:49.422Z,976.92
2016-03-28T17:06:49.408Z,976.91
2016-03-28T17:07:49.427Z,976.92
2016-03-28T17:08:49.461Z,977.01
2016-03-28T17:09:49.432Z,977.06
2016-03-28T17:10:49.435Z,977.15
2016-03-28T17:11:49.438Z,977.19
2016-03-28T17:12:49.440Z,977.35
2016-03-28T17:13:49.458Z,977.54
2016-03-28T17:14:49.461Z,977.8
2016-03-28T17:15:49.463Z,977.93
2016-03-28T17:16:49.467Z,978.13
2016-03-28T17:17:49.469Z,978.02
2016-03-28T17:18:49.472Z,978.12
2016-03-28T17:19:49.475Z,978.1
2016-03-28T17:20:49.493Z,978.25
2016-03-28T17:21:49.480Z,978.17
2016-03-28T17:22:49.483Z,978.22
2016-03-28T17:23:49.481Z,978.2
2016-03-28T17:24:49.500Z,978.3
2016-03-28T17:25:49.487Z,978.24
2016-03-28T17:26:49.490Z,978.27
2016-03-28T17:27:49.508Z,978.35
2016-03-28T17:28:49.495Z,978.64
2016-03-28T17:29:49.514Z,978.75
2016-03-28T17:30:49.516Z,978.97
2016-03-28T17:31:49.503Z,978.91
2016-03-28T17:32:49.522Z,978.94
2016-03-28T17:33:49.524Z,979.05
2016-03-28T17:34:49.527Z,978.97
2016-03-28T17:35:49.530Z,978.91
2016-03-28T17:36:49.533Z,978.95
2016-03-28T17:37:49.535Z,978.99
2016-03-28T17:38:49.538Z,978.87
2016-03-28T17:39:49.541Z,978.85
2016-03-28T17:40:49.527Z,978.87
2016-03-28T17:41:49.530Z,979
2016-03-28T17:42:49.533Z,979.03
2016-03-28T17:43:49.535Z,979.13
2016-03-28T17:44:49.538Z,979.28
2016-03-28T17:45:49.557Z,979.4
2016-03-28T17:46:49.544Z,979.45
2016-03-28T17:47:49.546Z,979.47
2016-03-28T17:48:49.534Z,979.45
2016-03-28T17:49:49.551Z,979.4
2016-03-28T17:50:49.539Z,979.33
2016-03-28T17:51:52.528Z,979.26
2016-03-28T17:52:49.544Z,979.14
2016-03-28T17:53:49.546Z,979.14
2016-03-28T17:54:49.549Z,979.15
2016-03-28T17:55:49.552Z,979.16
2016-03-28T17:56:49.539Z,979.21
2016-03-28T17:57:49.542Z,979.19
2016-03-28T17:58:49.560Z,979.25
2016-03-28T17:59:49.563Z,979.34
2016-03-28T18:00:49.566Z,979.4
2016-03-28T18:01:49.553Z,979.42
2016-03-28T18:02:49.555Z,979.51
2016-03-28T18:03:49.558Z,979.57
2016-03-28T18:04:49.546Z,979.51
2016-03-28T18:05:49.548Z,979.51
2016-03-28T18:06:49.551Z,979.52
2016-03-28T18:07:49.553Z,979.6
2016-03-28T18:08:49.571Z,979.66
2016-03-28T18:09:49.574Z,979.58
2016-03-28T18:10:49.561Z,979.62
2016-03-28T18:11:49.564Z,979.63
2016-03-28T18:12:49.567Z,979.67
2016-03-28T18:13:49.554Z,979.68
2016-03-28T18:14:49.556Z,979.66
2016-03-28T18:15:49.559Z,979.76
2016-03-28T18:16:49.562Z,979.81
2016-03-28T18:17:49.564Z,979.91
2016-03-28T18:18:49.567Z,979.91
2016-03-28T18:19:49.570Z,979.85
2016-03-28T18:20:49.573Z,979.87
2016-03-28T18:21:49.575Z,979.92
2016-03-28T18:22:49.578Z,979.92
2016-03-28T18:23:49.565Z,979.9
2016-03-28T18:24:49.568Z,979.9
2016-03-28T18:25:49.570Z,979.95
2016-03-28T18:26:49.573Z,979.94
2016-03-28T18:27:49.576Z,979.93
2016-03-28T18:28:49.578Z,979.9
2016-03-28T18:29:49.581Z,979.83
2016-03-28T18:30:49.584Z,979.84
2016-03-28T18:31:49.586Z,979.95
2016-03-28T18:32:49.574Z,980.11
2016-03-28T18:33:49.592Z,980.14
2016-03-28T18:34:49.579Z,980.12
2016-03-28T18:35:49.582Z,980.12
2016-03-28T18:36:49.585Z,980.03
2016-03-28T18:37:49.571Z,980.06
2016-03-28T18:38:49.590Z,979.92
2016-03-28T18:39:49.576Z,979.84
2016-03-28T18:40:49.580Z,979.88
2016-03-28T18:41:49.582Z,979.94
2016-03-28T18:42:49.585Z,980
2016-03-28T18:43:49.587Z,980
2016-03-28T18:44:49.590Z,979.9
2016-03-28T18:45:49.593Z,979.93
2016-03-28T18:46:49.579Z,980.04
2016-03-28T18:47:49.582Z,980.01
2016-03-28T18:48:49.585Z,980.06
2016-03-28T18:49:49.588Z,980.09
2016-03-28T18:50:49.591Z,980.12
2016-03-28T18:51:49.593Z,980.07
2016-03-28T18:52:49.596Z,980.19
2016-03-28T18:53:49.583Z,980.18
2016-03-28T18:54:49.586Z,980.22
2016-03-28T18:55:49.589Z,980.22
2016-03-28T18:56:49.591Z,980.23
2016-03-28T18:57:49.594Z,980.3
2016-03-28T18:58:49.597Z,980.28
2016-03-28T18:59:49.584Z,980.24
2016-03-28T19:00:49.602Z,980.3
2016-03-28T19:01:49.605Z,980.28
2016-03-28T19:02:49.591Z,980.36
2016-03-28T19:03:49.595Z,980.41
2016-03-28T19:04:49.597Z,980.39
2016-03-28T19:05:49.615Z,980.41
2016-03-28T19:06:49.603Z,980.47
2016-03-28T19:07:49.601Z,980.47
2016-03-28T19:08:49.603Z,980.44
2016-03-28T19:09:49.592Z,980.43
2016-03-28T19:10:49.594Z,980.53
2016-03-28T19:11:49.612Z,980.53
2016-03-28T19:12:49.600Z,980.52
2016-03-28T19:13:49.602Z,980.48
2016-03-28T19:14:49.620Z,980.48
2016-03-28T19:15:49.607Z,980.47
2016-03-28T19:16:49.610Z,980.45
2016-03-28T19:17:49.612Z,980.47
2016-03-28T19:18:49.616Z,980.57
2016-03-28T19:19:49.618Z,980.61
2016-03-28T19:20:49.605Z,980.57
2016-03-28T19:21:49.608Z,980.72
2016-03-28T19:22:49.626Z,980.66
2016-03-28T19:23:49.613Z,980.73
2016-03-28T19:24:49.616Z,980.79
2016-03-28T19:25:49.618Z,980.81
2016-03-28T19:26:49.621Z,980.82
2016-03-28T19:27:49.624Z,980.86
2016-03-28T19:28:49.626Z,980.9
2016-03-28T19:29:49.630Z,980.94
2016-03-28T19:30:49.632Z,981
2016-03-28T19:31:49.618Z,981.04
2016-03-28T19:32:49.638Z,980.92
2016-03-28T19:33:49.624Z,980.84
2016-03-28T19:34:49.627Z,980.78
2016-03-28T19:35:49.630Z,980.7
2016-03-28T19:36:49.632Z,980.75
2016-03-28T19:37:49.635Z,980.55
2016-03-28T19:38:49.638Z,980.51
2016-03-28T19:39:49.625Z,980.47
2016-03-28T19:40:49.627Z,980.43
2016-03-28T19:41:49.646Z,980.42
2016-03-28T19:42:49.633Z,980.34
2016-03-28T19:43:49.650Z,980.39
2016-03-28T19:44:49.639Z,980.47
2016-03-28T19:45:49.641Z,980.55
2016-03-28T19:46:49.659Z,980.42
2016-03-28T19:47:49.647Z,980.4
2016-03-28T19:48:49.633Z,980.38
2016-03-28T19:49:49.636Z,980.45
2016-03-28T19:50:49.655Z,980.4
2016-03-28T19:51:49.641Z,980.35
2016-03-28T19:52:49.660Z,980.33
2016-03-28T19:53:49.647Z,980.29
2016-03-28T19:54:49.650Z,980.29
2016-03-28T19:55:49.652Z,980.2
2016-03-28T19:56:49.655Z,980.28
2016-03-28T19:57:49.658Z,980.39
2016-03-28T19:58:49.645Z,980.45
2016-03-28T19:59:49.663Z,980.43
2016-03-28T20:00:49.650Z,980.43
2016-03-28T20:01:49.653Z,980.42
2016-03-28T20:02:49.656Z,980.43
2016-03-28T20:03:49.659Z,980.42
2016-03-28T20:04:49.661Z,980.46
2016-03-28T20:05:49.664Z,980.51
2016-03-28T20:06:49.651Z,980.59
2016-03-28T20:07:49.669Z,980.53
2016-03-28T20:08:49.656Z,980.58
2016-03-28T20:09:49.659Z,980.61
2016-03-28T20:10:49.661Z,980.65
2016-03-28T20:11:49.680Z,980.6
2016-03-28T20:12:49.667Z,980.64
2016-03-28T20:13:49.670Z,980.6
2016-03-28T20:14:49.673Z,980.55
2016-03-28T20:15:49.659Z,980.54
2016-03-28T20:16:49.693Z,980.49
2016-03-28T20:17:49.665Z,980.46
2016-03-28T20:18:49.667Z,980.55
2016-03-28T20:19:49.685Z,980.49
2016-03-28T20:20:49.672Z,980.56
2016-03-28T20:21:49.675Z,980.6
2016-03-28T20:22:49.694Z,980.64
2016-03-28T20:23:49.681Z,980.74
2016-03-28T20:24:49.683Z,980.74
2016-03-28T20:25:49.685Z,980.85
2016-03-28T20:26:49.674Z,980.9
2016-03-28T20:27:52.707Z,980.92
2016-03-28T20:28:49.694Z,980.96
2016-03-28T20:29:49.681Z,980.97
2016-03-28T20:30:49.699Z,980.95
2016-03-28T20:31:49.687Z,980.93
2016-03-28T20:32:49.674Z,980.92
2016-03-28T20:33:49.692Z,981.04
2016-03-28T20:34:49.695Z,980.99
2016-03-28T20:35:49.682Z,980.98
2016-03-28T20:36:49.684Z,981.11
2016-03-28T20:37:49.687Z,981.12
2016-03-28T20:38:49.689Z,981.29
2016-03-28T20:39:49.693Z,981.26
2016-03-28T20:40:49.679Z,981.37
2016-03-28T20:41:49.682Z,981.3
2016-03-28T20:42:49.701Z,981.28
2016-03-28T20:43:49.687Z,981.25
2016-03-28T20:44:49.690Z,981.31
2016-03-28T20:45:49.709Z,981.25
2016-03-28T20:46:49.711Z,981.32
2016-03-28T20:47:49.713Z,981.22
2016-03-28T20:48:49.700Z,981.39
2016-03-28T20:49:49.703Z,981.45
2016-03-28T20:50:49.691Z,981.54
2016-03-28T20:51:49.694Z,981.65
2016-03-28T20:52:49.696Z,981.66
2016-03-28T20:53:49.699Z,981.73
2016-03-28T20:54:49.717Z,981.95
2016-03-28T20:55:49.704Z,981.84
2016-03-28T20:56:49.722Z,981.89
2016-03-28T20:57:49.710Z,981.75
2016-03-28T20:58:49.696Z,981.56
2016-03-28T20:59:49.716Z,981.12
2016-03-28T21:00:49.718Z,980.63
2016-03-28T21:01:49.720Z,980.32
2016-03-28T21:02:49.708Z,980.47
2016-03-28T21:03:49.695Z,980.58
2016-03-28T21:04:49.713Z,980.55
2016-03-28T21:05:49.715Z,980.64
2016-03-28T21:06:49.703Z,980.74
2016-03-28T21:07:49.705Z,980.84
2016-03-28T21:08:49.740Z,980.89
2016-03-28T21:09:49.711Z,980.86
2016-03-28T21:10:49.713Z,980.78
2016-03-28T21:11:49.716Z,980.86
2016-03-28T21:12:49.703Z,980.91
2016-03-28T21:13:49.706Z,981
2016-03-28T21:14:49.709Z,981.06
2016-03-28T21:15:49.695Z,981.12
2016-03-28T21:16:49.698Z,981.18
2016-03-28T21:17:49.701Z,981.23
2016-03-28T21:18:49.719Z,981.3
2016-03-28T21:19:49.706Z,981.37
2016-03-28T21:20:49.693Z,981.38
2016-03-28T21:21:49.697Z,981.33
2016-03-28T21:22:49.699Z,981.36
2016-03-28T21:23:49.701Z,981.39
2016-03-28T21:24:49.813Z,981.4
2016-03-28T21:25:49.707Z,981.36
2016-03-28T21:26:49.710Z,981.3
2016-03-28T21:27:49.713Z,981.27
2016-03-28T21:28:49.715Z,981.22
2016-03-28T21:29:50.015Z,981.27
2016-03-28T21:30:49.705Z,981.21
2016-03-28T21:31:49.707Z,981.2
2016-03-28T21:32:49.709Z,981.15
2016-03-28T21:33:49.712Z,981.11
2016-03-28T21:34:49.699Z,981.11
2016-03-28T21:35:49.702Z,981.14
2016-03-28T21:36:49.705Z,981.08
2016-03-28T21:37:49.707Z,981.08
2016-03-28T21:38:49.710Z,981.1
2016-03-28T21:39:49.885Z,981.06
2016-03-28T21:40:49.715Z,981.05
2016-03-28T21:41:49.703Z,981.1
2016-03-28T21:42:49.720Z,981.09
2016-03-28T21:43:49.724Z,981.12
2016-03-28T21:44:49.711Z,981.05
2016-03-28T21:45:49.729Z,981.01
2016-03-28T21:46:49.717Z,981.05
2016-03-28T21:47:49.719Z,981.01
2016-03-28T21:48:49.701Z,981.01
2016-03-28T21:49:49.695Z,981.04
2016-03-28T21:50:49.689Z,981.05
2016-03-28T21:51:49.682Z,981.05
2016-03-28T21:52:49.676Z,980.99
2016-03-28T21:53:49.672Z,980.96
2016-03-28T21:54:49.672Z,980.93
2016-03-28T21:55:49.656Z,980.93
2016-03-28T21:56:49.670Z,980.86
2016-03-28T21:57:49.671Z,980.84
2016-03-28T21:58:49.656Z,980.81
2016-03-28T21:59:49.657Z,980.9
2016-03-28T22:00:49.658Z,980.9
2016-03-28T22:01:49.660Z,980.88
2016-03-28T22:02:49.662Z,980.94
2016-03-28T22:03:49.648Z,980.98
2016-03-28T22:04:49.651Z,981.15
2016-03-28T22:05:49.653Z,980.99
2016-03-28T22:06:49.654Z,981.12
2016-03-28T22:07:49.657Z,981.23
2016-03-28T22:08:49.660Z,981.28
2016-03-28T22:09:49.646Z,981.36
2016-03-28T22:10:49.648Z,981.38
2016-03-28T22:11:49.650Z,981.36
2016-03-28T22:12:49.652Z,981.4
2016-03-28T22:13:49.672Z,981.22
2016-03-28T22:14:49.643Z,981.17
2016-03-28T22:15:49.677Z,981.25
2016-03-28T22:16:49.648Z,981.23
2016-03-28T22:17:49.651Z,981.32
2016-03-28T22:18:49.653Z,981.23
2016-03-28T22:19:49.640Z,981.25
2016-03-28T22:20:49.658Z,981.26
2016-03-28T22:21:49.646Z,981.25
2016-03-28T22:22:49.648Z,981.21
2016-03-28T22:23:49.651Z,981.1
2016-03-28T22:24:49.654Z,981.07
2016-03-28T22:25:49.640Z,981.03
2016-03-28T22:26:49.659Z,980.99
2016-03-28T22:27:49.646Z,980.95
2016-03-28T22:28:49.648Z,981
2016-03-28T22:29:49.651Z,980.99
2016-03-28T22:30:49.654Z,980.98
2016-03-28T22:31:49.642Z,981
2016-03-28T22:32:49.644Z,981.06
2016-03-28T22:33:49.647Z,981.03
2016-03-28T22:34:49.650Z,980.96
2016-03-28T22:35:49.652Z,980.94
2016-03-28T22:36:49.655Z,980.87
2016-03-28T22:37:49.658Z,980.75
2016-03-28T22:38:49.644Z,980.79
2016-03-28T22:39:49.663Z,980.76
2016-03-28T22:40:49.650Z,980.82
2016-03-28T22:41:49.652Z,980.88
2016-03-28T22:42:49.671Z,980.85
2016-03-28T22:43:49.658Z,980.81
2016-03-28T22:44:49.645Z,980.76
2016-03-28T22:45:49.648Z,980.77
2016-03-28T22:46:49.651Z,980.8
2016-03-28T22:47:49.653Z,980.8
2016-03-28T22:48:49.656Z,980.72
2016-03-28T22:49:49.658Z,980.75
2016-03-28T22:50:49.662Z,980.78
2016-03-28T22:51:49.648Z,980.77
2016-03-28T22:52:49.651Z,980.79
2016-03-28T22:53:49.654Z,980.75
2016-03-28T22:54:49.656Z,980.78
2016-03-28T22:55:49.659Z,980.81
2016-03-28T22:56:49.646Z,980.88
2016-03-28T22:57:49.648Z,980.89
2016-03-28T22:58:49.651Z,980.95
2016-03-28T22:59:49.653Z,980.98
2016-03-28T23:00:49.657Z,981.1
2016-03-28T23:01:49.644Z,981.11
2016-03-28T23:02:49.647Z,981.19
2016-03-28T23:03:49.650Z,981.21
2016-03-28T23:04:49.652Z,981.29
2016-03-28T23:05:49.639Z,981.27
2016-03-28T23:06:49.642Z,981.32
2016-03-28T23:07:49.644Z,981.34
2016-03-28T23:08:49.647Z,981.32
2016-03-28T23:09:49.650Z,981.33
2016-03-28T23:10:49.653Z,981.32
2016-03-28T23:11:49.655Z,981.37
2016-03-28T23:12:49.658Z,981.33
2016-03-28T23:13:49.644Z,981.38
2016-03-28T23:14:49.647Z,981.43
2016-03-28T23:15:49.649Z,981.39
2016-03-28T23:16:49.653Z,981.39
2016-03-28T23:17:49.640Z,981.48
2016-03-28T23:18:49.642Z,981.44
2016-03-28T23:19:49.645Z,981.43
2016-03-28T23:20:49.648Z,981.45
2016-03-28T23:21:49.651Z,981.52
2016-03-28T23:22:49.654Z,981.46
2016-03-28T23:23:49.640Z,981.53
2016-03-28T23:24:49.643Z,981.59
2016-03-28T23:25:49.661Z,981.54
2016-03-28T23:26:49.649Z,981.55
2016-03-28T23:27:49.651Z,981.58
2016-03-28T23:28:49.653Z,981.47
2016-03-28T23:29:49.657Z,981.43
2016-03-28T23:30:49.644Z,981.44
2016-03-28T23:31:49.647Z,981.54
2016-03-28T23:32:49.665Z,981.58
2016-03-28T23:33:49.652Z,981.62
2016-03-28T23:34:49.655Z,981.64
2016-03-28T23:35:49.657Z,981.7
2016-03-28T23:36:49.661Z,981.54
2016-03-28T23:37:49.663Z,981.55
2016-03-28T23:38:49.649Z,981.56
2016-03-28T23:39:49.652Z,981.6
2016-03-28T23:40:49.655Z,981.66
2016-03-28T23:41:49.657Z,981.56
2016-03-28T23:42:49.661Z,981.46
2016-03-28T23:43:49.663Z,981.43
2016-03-28T23:44:49.650Z,981.42
2016-03-28T23:45:49.652Z,981.4
2016-03-28T23:46:49.655Z,981.45
2016-03-28T23:47:49.658Z,981.42
2016-03-28T23:48:49.676Z,981.48
2016-03-28T23:49:49.663Z,981.42
2016-03-28T23:50:49.666Z,981.34
2016-03-28T23:51:49.653Z,981.23
2016-03-28T23:52:49.671Z,981.33
2016-03-28T23:53:49.659Z,981.36
2016-03-28T23:54:49.662Z,981.31
2016-03-28T23:55:49.664Z,981.37
2016-03-28T23:56:49.667Z,981.29
2016-03-28T23:57:49.653Z,981.27
2016-03-28T23:58:49.656Z,981.28
2016-03-28T23:59:49.659Z,981.32
